Sunday, October 21, 2018, 9:36 PM EDT
Back to Local

KHPN, White Plains Westchester

Location: Greenwich, NY, United States Lat: 41.067
Local Time: 9:36 PM EDT ( 1:36 GMT) Lon: -73.7
Time Zone: US/Eastern Elev: 439 ft

Show me the last for .
Show Decoded

2018-10-21 20:56 METAR KHPN 220056Z 31015G21KT 10SM CLR 04/M06 A3010 RMK AO2 SLP199 T00391056 =
2018-10-21 19:56 METAR KHPN 212356Z 32011KT 10SM CLR 04/M04 A3008 RMK AO2 SLP193 T00391044 10083
                 20039 51035 =
2018-10-21 18:56 METAR KHPN 212256Z 31013G17KT 10SM CLR 04/M04 A3006 RMK AO2 SLP183 T00441044 =
2018-10-21 17:56 METAR KHPN 212156Z 31015G23KT 10SM FEW045 06/M04 A3002 RMK AO2 PK WND 30027/2132
                 SLP169 T00561044 =
2018-10-21 16:56 METAR KHPN 212056Z 31018G29KT 10SM SCT050 07/M05 A2998 RMK AO2 PK WND 32029/2008
                 SLP157 T00671050 51024 =
2018-10-21 15:56 METAR KHPN 211956Z 32014G21KT 10SM SCT050 07/M04 A2996 RMK AO2 PK WND 31029/1903
                 SLP148 T00721044 =
2018-10-21 14:56 METAR KHPN 211856Z 30023G29KT 10SM SCT050 08/M04 A2994 RMK AO2 PK WND 31033/1831
                 SLP140 T00781044 =
2018-10-21 13:56 METAR KHPN 211756Z 33025G32KT 10SM SCT050 08/M03 A2991 RMK AO2 PK WND 32033/1736
                 SLP131 T00781033 10083 20061 50002 =
2018-10-21 12:56 METAR KHPN 211656Z 31017G28KT 10SM BKN045 07/M03 A2991 RMK AO2 PK WND 29031/1557
                 SLP133 T00671033 =
2018-10-21 11:56 METAR KHPN 211556Z 31019G29KT 10SM BKN044 07/M03 A2992 RMK AO2 PK WND 30030/1511
                 SLP136 T00671028 =
2018-10-21 10:56 METAR KHPN 211456Z 32019G30KT 10SM BKN046 07/M03 A2990 RMK AO2 PK WND 30032/1425
                 SLP129 T00671028 51038 =
2018-10-21 09:56 METAR KHPN 211356Z 31020G26KT 10SM SCT039 07/M02 A2988 RMK AO2 PK WND 32029/1308
                 SLP122 T00671017 =
2018-10-21 08:56 METAR KHPN 211256Z 31019G31KT 10SM SCT040 06/M02 A2985 RMK AO2 PK WND 30031/1253
                 SLP111 T00611022 =
2018-10-21 07:56 METAR KHPN 211156Z 31015G20KT 10SM FEW010 SCT075 07/02 A2979 RMK AO2 SLP091
                 60000 70002 T00720022 10089 20072 53047 =
2018-10-21 06:56 METAR KHPN 211056Z 33017G24KT 10SM FEW010 BKN075 08/03 A2973 RMK AO2 SLP068
                 T00780028 =
2018-10-21 05:56 METAR KHPN 210956Z 32015G22KT 10SM BKN060 08/04 A2968 RMK AO2 SLP052 T00780044 =
2018-10-21 04:56 METAR KHPN 210856Z 31012KT 10SM BKN055 08/04 A2965 RMK AO2 SLP041 60000
                 T00780044 53015 =
2018-10-21 03:56 METAR KHPN 210756Z 33009KT 10SM BKN041 07/04 A2961 RMK AO2 RAE53 SLP026 P0000
                 T00720044 =
2018-10-21 03:14 METAR KHPN 210714Z 34013KT 10SM -RA FEW009 SCT027 SCT041 07/04 A2960 RMK AO2
                 P0000 T00720044 =
2018-10-21 02:56 METAR KHPN 210656Z 34011KT 10SM -RA FEW011 BKN024 OVC110 08/06 A2960 RMK AO2
                 SLP022 P0000 T00830061 =
2018-10-21 01:56 METAR KHPN 210556Z AUTO 33009KT 10SM -RA SCT028 BKN038 09/07 A2960 RMK AO2
                 SLP024 P0000 60002 T00890067 10111 20083 55005 =
2018-10-21 00:56 METAR KHPN 210456Z 32009KT 10SM -RA BKN070 09/07 A2960 RMK AO2 RAE24B54 SLP025
                 P0000 T00940067 401670083 =
2018-10-20 23:56 METAR KHPN 210356Z 31005KT 9SM -RA FEW037 BKN048 BKN080 10/07 A2962 RMK AO2
                 SLP029 P0002 T01000067 =
2018-10-20 22:56 METAR KHPN 210256Z 28007KT 10SM -RA BKN060 OVC090 10/07 A2962 RMK AO2 RAB37
                 SLP031 P0000 60000 T01000067 51006 =
2018-10-20 21:56 METAR KHPN 210156Z 33004KT 10SM CLR 09/05 A2961 RMK AO2 SLP028 T00940050 =

Support USWX by starting your Amazon purchase here.